sensor_id;sensor_type;location;lat;lon;timestamp;temperature;humidity
55777;DHT22;54079;44.540;18.784;2023-07-20T00:02:01;20.50;99.90
55777;DHT22;54079;44.540;18.784;2023-07-20T00:04:28;20.50;99.90
55777;DHT22;54079;44.540;18.784;2023-07-20T00:06:54;20.40;99.90
55777;DHT22;54079;44.540;18.784;2023-07-20T00:09:20;20.30;99.90
55777;DHT22;54079;44.540;18.784;2023-07-20T00:11:50;20.30;99.90
55777;DHT22;54079;44.540;18.784;2023-07-20T00:14:17;20.50;99.90
55777;DHT22;54079;44.540;18.784;2023-07-20T00:16:44;20.70;99.90
55777;DHT22;54079;44.540;18.784;2023-07-20T00:19:12;20.80;99.90
55777;DHT22;54079;44.540;18.784;2023-07-20T00:21:38;20.90;99.90
55777;DHT22;54079;44.540;18.784;2023-07-20T00:24:06;20.90;99.90
55777;DHT22;54079;44.540;18.784;2023-07-20T00:26:32;20.90;99.90
55777;DHT22;54079;44.540;18.784;2023-07-20T00:28:57;20.90;99.90
55777;DHT22;54079;44.540;18.784;2023-07-20T00:31:23;20.80;99.90
55777;DHT22;54079;44.540;18.784;2023-07-20T00:33:49;20.70;99.90
55777;DHT22;54079;44.540;18.784;2023-07-20T00:36:15;20.70;99.90
55777;DHT22;54079;44.540;18.784;2023-07-20T00:38:42;20.70;99.90
55777;DHT22;54079;44.540;18.784;2023-07-20T00:41:08;20.70;99.90
55777;DHT22;54079;44.540;18.784;2023-07-20T00:43:34;20.60;99.90
55777;DHT22;54079;44.540;18.784;2023-07-20T00:46:00;20.60;99.90
55777;DHT22;54079;44.540;18.784;2023-07-20T00:48:26;20.70;99.90
55777;DHT22;54079;44.540;18.784;2023-07-20T00:50:52;20.80;99.90
55777;DHT22;54079;44.540;18.784;2023-07-20T00:53:18;20.90;99.90
55777;DHT22;54079;44.540;18.784;2023-07-20T00:55:44;21.00;99.90
55777;DHT22;54079;44.540;18.784;2023-07-20T00:58:10;21.10;99.90
55777;DHT22;54079;44.540;18.784;2023-07-20T01:00:36;21.10;99.90
55777;DHT22;54079;44.540;18.784;2023-07-20T01:03:02;20.90;99.90
55777;DHT22;54079;44.540;18.784;2023-07-20T01:05:59;20.80;99.90
55777;DHT22;54079;44.540;18.784;2023-07-20T01:08:32;20.90;99.90
55777;DHT22;54079;44.540;18.784;2023-07-20T01:11:13;21.00;99.90
55777;DHT22;54079;44.540;18.784;2023-07-20T01:13:43;21.10;99.90
55777;DHT22;54079;44.540;18.784;2023-07-20T01:16:09;21.20;99.90
55777;DHT22;54079;44.540;18.784;2023-07-20T01:18:35;21.20;99.90
55777;DHT22;54079;44.540;18.784;2023-07-20T01:21:12;21.20;99.90
55777;DHT22;54079;44.540;18.784;2023-07-20T01:27:08;21.20;99.90
55777;DHT22;54079;44.540;18.784;2023-07-20T01:32:12;21.10;99.90
55777;DHT22;54079;44.540;18.784;2023-07-20T01:34:40;21.10;99.90
55777;DHT22;54079;44.540;18.784;2023-07-20T01:37:07;21.00;99.90
55777;DHT22;54079;44.540;18.784;2023-07-20T01:39:35;21.00;99.90
55777;DHT22;54079;44.540;18.784;2023-07-20T01:42:01;21.00;99.90
55777;DHT22;54079;44.540;18.784;2023-07-20T01:44:28;21.00;99.90
55777;DHT22;54079;44.540;18.784;2023-07-20T01:46:54;20.90;99.90
55777;DHT22;54079;44.540;18.784;2023-07-20T01:49:20;20.90;99.90
55777;DHT22;54079;44.540;18.784;2023-07-20T01:51:46;20.90;99.90
55777;DHT22;54079;44.540;18.784;2023-07-20T01:54:12;20.90;99.90
55777;DHT22;54079;44.540;18.784;2023-07-20T01:56:38;21.00;99.90
55777;DHT22;54079;44.540;18.784;2023-07-20T01:59:03;21.00;99.90
55777;DHT22;54079;44.540;18.784;2023-07-20T02:01:29;21.10;99.90
55777;DHT22;54079;44.540;18.784;2023-07-20T02:03:55;21.00;99.90
55777;DHT22;54079;44.540;18.784;2023-07-20T02:06:21;21.00;99.90
55777;DHT22;54079;44.540;18.784;2023-07-20T02:08:47;21.00;99.90
55777;DHT22;54079;44.540;18.784;2023-07-20T02:11:13;20.60;99.90
55777;DHT22;54079;44.540;18.784;2023-07-20T02:13:39;20.30;99.90
55777;DHT22;54079;44.540;18.784;2023-07-20T02:16:04;20.40;99.90
55777;DHT22;54079;44.540;18.784;2023-07-20T02:20:56;20.70;99.90
55777;DHT22;54079;44.540;18.784;2023-07-20T02:23:22;20.80;99.90
55777;DHT22;54079;44.540;18.784;2023-07-20T02:25:48;20.80;99.90
55777;DHT22;54079;44.540;18.784;2023-07-20T02:28:14;20.70;99.90
55777;DHT22;54079;44.540;18.784;2023-07-20T02:30:40;20.60;99.90
55777;DHT22;54079;44.540;18.784;2023-07-20T02:33:07;20.60;99.90
55777;DHT22;54079;44.540;18.784;2023-07-20T02:35:33;20.60;99.90
55777;DHT22;54079;44.540;18.784;2023-07-20T02:37:59;20.80;99.90
55777;DHT22;54079;44.540;18.784;2023-07-20T02:40:25;21.00;99.90
55777;DHT22;54079;44.540;18.784;2023-07-20T02:42:51;21.00;99.90
55777;DHT22;54079;44.540;18.784;2023-07-20T02:45:17;20.90;99.90
55777;DHT22;54079;44.540;18.784;2023-07-20T02:47:43;21.00;99.90
55777;DHT22;54079;44.540;18.784;2023-07-20T02:50:09;21.10;99.90
55777;DHT22;54079;44.540;18.784;2023-07-20T02:52:35;21.10;99.90
55777;DHT22;54079;44.540;18.784;2023-07-20T02:55:00;21.00;99.90
55777;DHT22;54079;44.540;18.784;2023-07-20T02:57:26;21.10;99.90
55777;DHT22;54079;44.540;18.784;2023-07-20T02:59:52;21.10;99.90
55777;DHT22;54079;44.540;18.784;2023-07-20T03:02:19;21.20;99.90
55777;DHT22;54079;44.540;18.784;2023-07-20T03:04:45;21.20;99.90
55777;DHT22;54079;44.540;18.784;2023-07-20T03:07:11;21.20;99.90
55777;DHT22;54079;44.540;18.784;2023-07-20T03:09:37;21.40;99.90
55777;DHT22;54079;44.540;18.784;2023-07-20T03:12:03;21.30;99.90
55777;DHT22;54079;44.540;18.784;2023-07-20T03:14:30;21.10;99.90
55777;DHT22;54079;44.540;18.784;2023-07-20T03:16:56;21.20;99.90
55777;DHT22;54079;44.540;18.784;2023-07-20T03:19:22;21.20;99.90
55777;DHT22;54079;44.540;18.784;2023-07-20T03:21:48;21.00;99.90
55777;DHT22;54079;44.540;18.784;2023-07-20T03:24:14;20.90;99.90
55777;DHT22;54079;44.540;18.784;2023-07-20T03:26:40;20.90;99.90
55777;DHT22;54079;44.540;18.784;2023-07-20T03:29:06;21.00;99.90
55777;DHT22;54079;44.540;18.784;2023-07-20T03:31:32;21.00;99.90
55777;DHT22;54079;44.540;18.784;2023-07-20T03:33:58;21.00;99.90
55777;DHT22;54079;44.540;18.784;2023-07-20T03:36:24;20.50;99.90
55777;DHT22;54079;44.540;18.784;2023-07-20T03:38:50;20.60;99.90
55777;DHT22;54079;44.540;18.784;2023-07-20T03:41:16;20.20;99.90
55777;DHT22;54079;44.540;18.784;2023-07-20T03:43:42;20.40;99.90
55777;DHT22;54079;44.540;18.784;2023-07-20T03:46:08;20.60;99.90
55777;DHT22;54079;44.540;18.784;2023-07-20T03:48:34;20.20;99.90
55777;DHT22;54079;44.540;18.784;2023-07-20T03:51:00;19.90;99.90
55777;DHT22;54079;44.540;18.784;2023-07-20T03:53:26;19.90;99.90
55777;DHT22;54079;44.540;18.784;2023-07-20T03:55:54;19.50;99.90
55777;DHT22;54079;44.540;18.784;2023-07-20T03:58:20;19.30;99.90
55777;DHT22;54079;44.540;18.784;2023-07-20T04:00:49;19.30;99.90
55777;DHT22;54079;44.540;18.784;2023-07-20T04:03:16;19.20;99.90
55777;DHT22;54079;44.540;18.784;2023-07-20T04:05:43;19.40;99.90
55777;DHT22;54079;44.540;18.784;2023-07-20T04:08:10;19.60;99.90
55777;DHT22;54079;44.540;18.784;2023-07-20T04:10:37;19.90;99.90
55777;DHT22;54079;44.540;18.784;2023-07-20T04:13:04;20.00;99.90
55777;DHT22;54079;44.540;18.784;2023-07-20T04:15:31;20.20;99.90
55777;DHT22;54079;44.540;18.784;2023-07-20T04:17:57;20.30;99.90
55777;DHT22;54079;44.540;18.784;2023-07-20T04:20:23;20.40;99.90
55777;DHT22;54079;44.540;18.784;2023-07-20T04:22:50;20.60;99.90
55777;DHT22;54079;44.540;18.784;2023-07-20T04:25:17;20.70;99.90
55777;DHT22;54079;44.540;18.784;2023-07-20T04:27:43;20.90;99.90
55777;DHT22;54079;44.540;18.784;2023-07-20T04:30:10;21.00;99.90
55777;DHT22;54079;44.540;18.784;2023-07-20T04:32:37;21.00;99.90
55777;DHT22;54079;44.540;18.784;2023-07-20T04:35:07;20.90;99.90
55777;DHT22;54079;44.540;18.784;2023-07-20T04:37:33;21.10;99.90
55777;DHT22;54079;44.540;18.784;2023-07-20T04:39:59;21.20;99.90
55777;DHT22;54079;44.540;18.784;2023-07-20T04:42:25;21.30;99.90
55777;DHT22;54079;44.540;18.784;2023-07-20T04:44:51;21.40;99.90
55777;DHT22;54079;44.540;18.784;2023-07-20T04:47:17;21.30;99.90
55777;DHT22;54079;44.540;18.784;2023-07-20T04:49:43;21.30;99.90
55777;DHT22;54079;44.540;18.784;2023-07-20T04:52:09;21.40;99.90
55777;DHT22;54079;44.540;18.784;2023-07-20T04:54:35;21.30;99.90
55777;DHT22;54079;44.540;18.784;2023-07-20T04:57:01;21.30;99.90
55777;DHT22;54079;44.540;18.784;2023-07-20T04:59:26;21.50;99.90
55777;DHT22;54079;44.540;18.784;2023-07-20T05:01:52;21.50;99.90
55777;DHT22;54079;44.540;18.784;2023-07-20T05:04:18;22.10;99.90
55777;DHT22;54079;44.540;18.784;2023-07-20T05:06:44;24.00;99.90
55777;DHT22;54079;44.540;18.784;2023-07-20T05:09:10;25.70;99.90
55777;DHT22;54079;44.540;18.784;2023-07-20T05:11:36;26.60;94.80
55777;DHT22;54079;44.540;18.784;2023-07-20T05:14:02;28.50;91.80
55777;DHT22;54079;44.540;18.784;2023-07-20T05:16:28;29.40;87.60
55777;DHT22;54079;44.540;18.784;2023-07-20T05:18:54;29.90;85.30
55777;DHT22;54079;44.540;18.784;2023-07-20T05:21:22;30.60;79.10
55777;DHT22;54079;44.540;18.784;2023-07-20T05:23:48;31.30;77.40
55777;DHT22;54079;44.540;18.784;2023-07-20T05:26:14;31.70;73.20
55777;DHT22;54079;44.540;18.784;2023-07-20T05:28:40;30.80;71.90
55777;DHT22;54079;44.540;18.784;2023-07-20T05:31:06;30.90;75.30
55777;DHT22;54079;44.540;18.784;2023-07-20T05:33:32;33.20;72.90
55777;DHT22;54079;44.540;18.784;2023-07-20T05:35:58;34.60;67.10
55777;DHT22;54079;44.540;18.784;2023-07-20T05:38:24;36.00;67.50
55777;DHT22;54079;44.540;18.784;2023-07-20T05:40:50;37.30;64.30
55777;DHT22;54079;44.540;18.784;2023-07-20T05:43:16;38.50;62.00
55777;DHT22;54079;44.540;18.784;2023-07-20T05:45:43;38.40;57.20
55777;DHT22;54079;44.540;18.784;2023-07-20T05:48:10;37.00;58.20
55777;DHT22;54079;44.540;18.784;2023-07-20T05:50:38;36.60;59.70
55777;DHT22;54079;44.540;18.784;2023-07-20T05:53:04;37.60;59.20
55777;DHT22;54079;44.540;18.784;2023-07-20T05:55:30;36.70;57.60
55777;DHT22;54079;44.540;18.784;2023-07-20T05:57:57;36.10;58.80
55777;DHT22;54079;44.540;18.784;2023-07-20T06:00:23;36.70;59.00
55777;DHT22;54079;44.540;18.784;2023-07-20T06:02:53;37.90;56.50
55777;DHT22;54079;44.540;18.784;2023-07-20T06:05:19;39.50;56.20
55777;DHT22;54079;44.540;18.784;2023-07-20T06:07:46;39.80;53.60
55777;DHT22;54079;44.540;18.784;2023-07-20T06:10:12;40.60;53.00
55777;DHT22;54079;44.540;18.784;2023-07-20T06:12:38;41.30;53.70
55777;DHT22;54079;44.540;18.784;2023-07-20T06:15:05;41.60;51.20
55777;DHT22;54079;44.540;18.784;2023-07-20T06:17:31;41.30;52.10
55777;DHT22;54079;44.540;18.784;2023-07-20T06:19:57;40.60;52.40
55777;DHT22;54079;44.540;18.784;2023-07-20T06:22:23;40.00;52.10
55777;DHT22;54079;44.540;18.784;2023-07-20T06:24:49;39.20;54.50
55777;DHT22;54079;44.540;18.784;2023-07-20T06:27:15;40.90;52.80
55777;DHT22;54079;44.540;18.784;2023-07-20T06:29:41;41.10;50.60
55777;DHT22;54079;44.540;18.784;2023-07-20T06:32:08;40.40;52.40
55777;DHT22;54079;44.540;18.784;2023-07-20T06:34:34;40.50;52.10
55777;DHT22;54079;44.540;18.784;2023-07-20T06:37:03;42.10;50.70
55777;DHT22;54079;44.540;18.784;2023-07-20T06:39:30;43.80;49.50
55777;DHT22;54079;44.540;18.784;2023-07-20T06:41:56;44.40;49.70
55777;DHT22;54079;44.540;18.784;2023-07-20T06:44:22;45.10;47.80
55777;DHT22;54079;44.540;18.784;2023-07-20T06:46:48;46.30;46.90
55777;DHT22;54079;44.540;18.784;2023-07-20T06:49:25;47.50;46.00
55777;DHT22;54079;44.540;18.784;2023-07-20T06:51:51;48.20;45.00
55777;DHT22;54079;44.540;18.784;2023-07-20T06:54:17;47.40;42.70
55777;DHT22;54079;44.540;18.784;2023-07-20T06:56:43;47.20;45.50
55777;DHT22;54079;44.540;18.784;2023-07-20T06:59:09;47.70;44.80
55777;DHT22;54079;44.540;18.784;2023-07-20T07:01:35;48.60;44.00
55777;DHT22;54079;44.540;18.784;2023-07-20T07:04:01;48.40;43.60
55777;DHT22;54079;44.540;18.784;2023-07-20T07:06:27;47.30;42.70
55777;DHT22;54079;44.540;18.784;2023-07-20T07:08:53;46.80;43.80
55777;DHT22;54079;44.540;18.784;2023-07-20T07:11:23;46.30;43.80
55777;DHT22;54079;44.540;18.784;2023-07-20T07:13:49;46.70;44.50
55777;DHT22;54079;44.540;18.784;2023-07-20T07:16:17;46.80;42.10
55777;DHT22;54079;44.540;18.784;2023-07-20T07:18:45;46.10;43.70
55777;DHT22;54079;44.540;18.784;2023-07-20T07:21:11;45.60;44.90
55777;DHT22;54079;44.540;18.784;2023-07-20T07:23:38;46.00;45.10
55777;DHT22;54079;44.540;18.784;2023-07-20T07:26:04;45.70;45.40
55777;DHT22;54079;44.540;18.784;2023-07-20T07:28:30;46.70;46.90
55777;DHT22;54079;44.540;18.784;2023-07-20T07:30:57;48.80;43.80
55777;DHT22;54079;44.540;18.784;2023-07-20T07:33:23;50.40;41.90
55777;DHT22;54079;44.540;18.784;2023-07-20T07:35:52;50.70;43.20
55777;DHT22;54079;44.540;18.784;2023-07-20T07:38:19;51.40;41.00
55777;DHT22;54079;44.540;18.784;2023-07-20T07:40:45;49.40;40.00
55777;DHT22;54079;44.540;18.784;2023-07-20T07:43:12;50.20;41.70
55777;DHT22;54079;44.540;18.784;2023-07-20T07:45:39;50.80;41.80
55777;DHT22;54079;44.540;18.784;2023-07-20T07:48:06;51.40;40.10
55777;DHT22;54079;44.540;18.784;2023-07-20T07:50:33;52.10;41.50
55777;DHT22;54079;44.540;18.784;2023-07-20T07:52:59;51.40;37.90
55777;DHT22;54079;44.540;18.784;2023-07-20T07:55:25;50.90;40.50
55777;DHT22;54079;44.540;18.784;2023-07-20T07:57:54;50.10;41.00
55777;DHT22;54079;44.540;18.784;2023-07-20T08:00:21;51.50;39.90
55777;DHT22;54079;44.540;18.784;2023-07-20T08:02:47;51.20;39.20
55777;DHT22;54079;44.540;18.784;2023-07-20T08:05:14;51.30;40.30
55777;DHT22;54079;44.540;18.784;2023-07-20T08:07:40;52.70;39.80
55777;DHT22;54079;44.540;18.784;2023-07-20T08:10:06;52.20;39.50
55777;DHT22;54079;44.540;18.784;2023-07-20T08:12:33;53.30;39.00
55777;DHT22;54079;44.540;18.784;2023-07-20T08:14:59;53.10;40.70
55777;DHT22;54079;44.540;18.784;2023-07-20T08:17:25;53.40;40.00
55777;DHT22;54079;44.540;18.784;2023-07-20T08:19:51;53.70;40.10
55777;DHT22;54079;44.540;18.784;2023-07-20T08:22:17;54.20;39.00
55777;DHT22;54079;44.540;18.784;2023-07-20T08:24:43;53.60;38.70
55777;DHT22;54079;44.540;18.784;2023-07-20T08:27:09;53.80;39.20
55777;DHT22;54079;44.540;18.784;2023-07-20T08:29:36;53.30;38.20
55777;DHT22;54079;44.540;18.784;2023-07-20T08:32:03;54.10;39.40
55777;DHT22;54079;44.540;18.784;2023-07-20T08:34:30;54.20;37.40
55777;DHT22;54079;44.540;18.784;2023-07-20T08:36:57;53.00;36.80
55777;DHT22;54079;44.540;18.784;2023-07-20T08:39:25;52.70;39.00
55777;DHT22;54079;44.540;18.784;2023-07-20T08:41:51;53.30;39.10
55777;DHT22;54079;44.540;18.784;2023-07-20T08:44:18;54.10;38.80
55777;DHT22;54079;44.540;18.784;2023-07-20T08:46:44;54.20;39.20
55777;DHT22;54079;44.540;18.784;2023-07-20T08:49:11;54.00;37.00
55777;DHT22;54079;44.540;18.784;2023-07-20T08:51:38;52.90;36.90
55777;DHT22;54079;44.540;18.784;2023-07-20T08:54:05;53.60;36.60
55777;DHT22;54079;44.540;18.784;2023-07-20T08:56:34;53.90;37.20
55777;DHT22;54079;44.540;18.784;2023-07-20T08:59:00;54.30;37.40
55777;DHT22;54079;44.540;18.784;2023-07-20T09:01:28;55.20;36.90
55777;DHT22;54079;44.540;18.784;2023-07-20T09:03:55;55.80;37.20
55777;DHT22;54079;44.540;18.784;2023-07-20T09:06:21;55.10;36.20
55777;DHT22;54079;44.540;18.784;2023-07-20T09:08:47;52.40;36.60
55777;DHT22;54079;44.540;18.784;2023-07-20T09:11:14;52.60;36.40
55777;DHT22;54079;44.540;18.784;2023-07-20T09:13:40;51.30;37.00
55777;DHT22;54079;44.540;18.784;2023-07-20T09:16:06;48.80;39.50
55777;DHT22;54079;44.540;18.784;2023-07-20T09:18:32;45.60;39.50
55777;DHT22;54079;44.540;18.784;2023-07-20T09:21:03;43.10;41.60
55777;DHT22;54079;44.540;18.784;2023-07-20T09:23:31;40.90;42.90
55777;DHT22;54079;44.540;18.784;2023-07-20T09:25:58;39.00;45.30
55777;DHT22;54079;44.540;18.784;2023-07-20T09:28:24;37.90;48.40
55777;DHT22;54079;44.540;18.784;2023-07-20T09:30:50;38.00;48.20
55777;DHT22;54079;44.540;18.784;2023-07-20T09:33:21;37.40;48.90
55777;DHT22;54079;44.540;18.784;2023-07-20T09:35:48;36.00;49.40
55777;DHT22;54079;44.540;18.784;2023-07-20T09:38:15;35.10;50.60
55777;DHT22;54079;44.540;18.784;2023-07-20T09:40:41;35.10;51.40
55777;DHT22;54079;44.540;18.784;2023-07-20T09:43:08;34.90;53.50
55777;DHT22;54079;44.540;18.784;2023-07-20T09:45:41;34.50;52.60
55777;DHT22;54079;44.540;18.784;2023-07-20T09:48:10;33.90;56.00
55777;DHT22;54079;44.540;18.784;2023-07-20T09:51:03;33.80;55.00
55777;DHT22;54079;44.540;18.784;2023-07-20T09:53:32;33.80;55.50
55777;DHT22;54079;44.540;18.784;2023-07-20T09:56:04;33.90;58.50
55777;DHT22;54079;44.540;18.784;2023-07-20T09:58:32;33.50;55.10
55777;DHT22;54079;44.540;18.784;2023-07-20T10:01:03;32.70;54.30
55777;DHT22;54079;44.540;18.784;2023-07-20T10:03:32;31.80;56.60
55777;DHT22;54079;44.540;18.784;2023-07-20T10:06:03;31.40;58.50
55777;DHT22;54079;44.540;18.784;2023-07-20T10:08:32;31.40;59.30
55777;DHT22;54079;44.540;18.784;2023-07-20T10:11:02;31.60;57.70
55777;DHT22;54079;44.540;18.784;2023-07-20T10:13:30;31.40;57.70
55777;DHT22;54079;44.540;18.784;2023-07-20T10:16:03;31.90;59.60
55777;DHT22;54079;44.540;18.784;2023-07-20T10:18:55;32.20;57.00
55777;DHT22;54079;44.540;18.784;2023-07-20T10:21:25;32.20;58.90
55777;DHT22;54079;44.540;18.784;2023-07-20T10:23:52;32.80;56.80
55777;DHT22;54079;44.540;18.784;2023-07-20T10:26:18;32.90;55.60
55777;DHT22;54079;44.540;18.784;2023-07-20T10:28:44;32.70;55.30
55777;DHT22;54079;44.540;18.784;2023-07-20T10:31:13;33.10;58.30
55777;DHT22;54079;44.540;18.784;2023-07-20T10:33:41;33.40;58.70
55777;DHT22;54079;44.540;18.784;2023-07-20T10:36:07;33.20;58.30
55777;DHT22;54079;44.540;18.784;2023-07-20T10:41:21;33.50;57.90
55777;DHT22;54079;44.540;18.784;2023-07-20T10:43:50;34.20;56.40
55777;DHT22;54079;44.540;18.784;2023-07-20T10:49:06;33.20;57.20
55777;DHT22;54079;44.540;18.784;2023-07-20T10:52:00;32.50;56.70
55777;DHT22;54079;44.540;18.784;2023-07-20T10:56:52;32.10;56.50
55777;DHT22;54079;44.540;18.784;2023-07-20T10:59:19;31.80;58.60
55777;DHT22;54079;44.540;18.784;2023-07-20T11:01:50;31.80;56.80
55777;DHT22;54079;44.540;18.784;2023-07-20T11:04:17;31.80;57.50
55777;DHT22;54079;44.540;18.784;2023-07-20T11:06:46;31.90;54.40
55777;DHT22;54079;44.540;18.784;2023-07-20T11:09:22;32.20;55.70
55777;DHT22;54079;44.540;18.784;2023-07-20T11:12:12;32.00;57.30
55777;DHT22;54079;44.540;18.784;2023-07-20T11:14:43;32.20;56.30
55777;DHT22;54079;44.540;18.784;2023-07-20T11:17:15;32.10;54.30
55777;DHT22;54079;44.540;18.784;2023-07-20T11:19:48;32.10;55.10
55777;DHT22;54079;44.540;18.784;2023-07-20T11:22:17;31.70;56.30
55777;DHT22;54079;44.540;18.784;2023-07-20T11:24:43;31.80;53.70
55777;DHT22;54079;44.540;18.784;2023-07-20T11:27:09;31.90;52.90
55777;DHT22;54079;44.540;18.784;2023-07-20T11:29:37;31.80;54.10
55777;DHT22;54079;44.540;18.784;2023-07-20T11:32:03;31.90;54.10
55777;DHT22;54079;44.540;18.784;2023-07-20T11:34:31;32.20;54.40
55777;DHT22;54079;44.540;18.784;2023-07-20T11:36:57;32.40;55.60
55777;DHT22;54079;44.540;18.784;2023-07-20T11:39:23;31.70;56.70
55777;DHT22;54079;44.540;18.784;2023-07-20T11:41:52;31.30;55.70
55777;DHT22;54079;44.540;18.784;2023-07-20T11:44:19;31.00;57.50
55777;DHT22;54079;44.540;18.784;2023-07-20T11:47:05;31.40;58.50
55777;DHT22;54079;44.540;18.784;2023-07-20T11:49:42;31.40;58.20
55777;DHT22;54079;44.540;18.784;2023-07-20T11:52:11;31.40;57.70
55777;DHT22;54079;44.540;18.784;2023-07-20T11:54:41;31.20;55.70
55777;DHT22;54079;44.540;18.784;2023-07-20T11:57:15;31.30;56.20
55777;DHT22;54079;44.540;18.784;2023-07-20T11:59:56;31.50;56.90
55777;DHT22;54079;44.540;18.784;2023-07-20T12:02:30;31.30;57.70
55777;DHT22;54079;44.540;18.784;2023-07-20T12:04:57;31.40;58.70
55777;DHT22;54079;44.540;18.784;2023-07-20T12:07:25;31.30;59.50
55777;DHT22;54079;44.540;18.784;2023-07-20T12:10:08;31.20;58.50
55777;DHT22;54079;44.540;18.784;2023-07-20T12:12:37;31.10;56.50
55777;DHT22;54079;44.540;18.784;2023-07-20T12:15:33;31.00;58.40
55777;DHT22;54079;44.540;18.784;2023-07-20T12:18:00;31.20;57.20
55777;DHT22;54079;44.540;18.784;2023-07-20T12:22:55;31.30;58.00
55777;DHT22;54079;44.540;18.784;2023-07-20T12:25:21;31.30;58.70
55777;DHT22;54079;44.540;18.784;2023-07-20T12:27:48;31.10;58.70
55777;DHT22;54079;44.540;18.784;2023-07-20T12:30:14;30.80;59.00
55777;DHT22;54079;44.540;18.784;2023-07-20T12:32:40;30.80;60.60
55777;DHT22;54079;44.540;18.784;2023-07-20T12:35:06;30.80;61.00
55777;DHT22;54079;44.540;18.784;2023-07-20T12:37:33;30.60;59.90
55777;DHT22;54079;44.540;18.784;2023-07-20T12:40:00;30.90;60.00
55777;DHT22;54079;44.540;18.784;2023-07-20T12:42:26;30.90;59.90
55777;DHT22;54079;44.540;18.784;2023-07-20T12:44:52;30.90;58.60
55777;DHT22;54079;44.540;18.784;2023-07-20T12:47:18;30.70;59.80
55777;DHT22;54079;44.540;18.784;2023-07-20T12:49:44;30.90;59.20
55777;DHT22;54079;44.540;18.784;2023-07-20T12:52:11;30.80;59.90
55777;DHT22;54079;44.540;18.784;2023-07-20T12:54:37;30.90;59.70
55777;DHT22;54079;44.540;18.784;2023-07-20T12:57:03;30.60;61.40
55777;DHT22;54079;44.540;18.784;2023-07-20T12:59:29;30.60;61.90
55777;DHT22;54079;44.540;18.784;2023-07-20T13:01:55;30.80;62.80
55777;DHT22;54079;44.540;18.784;2023-07-20T13:04:21;30.60;60.40
55777;DHT22;54079;44.540;18.784;2023-07-20T13:06:47;30.80;60.40
55777;DHT22;54079;44.540;18.784;2023-07-20T13:09:13;30.70;60.70
55777;DHT22;54079;44.540;18.784;2023-07-20T13:11:39;30.50;59.10
55777;DHT22;54079;44.540;18.784;2023-07-20T13:14:05;30.40;60.10
55777;DHT22;54079;44.540;18.784;2023-07-20T13:16:31;30.30;59.50
55777;DHT22;54079;44.540;18.784;2023-07-20T13:18:57;30.30;60.60
55777;DHT22;54079;44.540;18.784;2023-07-20T13:21:23;30.30;60.10
55777;DHT22;54079;44.540;18.784;2023-07-20T13:23:50;30.50;60.00
55777;DHT22;54079;44.540;18.784;2023-07-20T13:26:16;30.30;59.20
55777;DHT22;54079;44.540;18.784;2023-07-20T13:28:42;30.20;60.70
55777;DHT22;54079;44.540;18.784;2023-07-20T13:31:08;30.00;60.30
55777;DHT22;54079;44.540;18.784;2023-07-20T13:33:36;30.10;62.10
55777;DHT22;54079;44.540;18.784;2023-07-20T13:36:02;30.20;61.70
55777;DHT22;54079;44.540;18.784;2023-07-20T13:38:30;30.10;60.70
55777;DHT22;54079;44.540;18.784;2023-07-20T13:40:56;30.10;60.60
55777;DHT22;54079;44.540;18.784;2023-07-20T13:43:22;30.20;61.00
55777;DHT22;54079;44.540;18.784;2023-07-20T13:45:48;30.30;62.80
55777;DHT22;54079;44.540;18.784;2023-07-20T13:48:14;30.50;60.60
55777;DHT22;54079;44.540;18.784;2023-07-20T13:50:40;30.80;60.30
55777;DHT22;54079;44.540;18.784;2023-07-20T13:53:06;30.70;59.60
55777;DHT22;54079;44.540;18.784;2023-07-20T13:55:32;30.30;62.10
55777;DHT22;54079;44.540;18.784;2023-07-20T13:58:02;30.30;61.40
55777;DHT22;54079;44.540;18.784;2023-07-20T14:00:28;30.20;60.90
55777;DHT22;54079;44.540;18.784;2023-07-20T14:02:58;30.10;61.10
55777;DHT22;54079;44.540;18.784;2023-07-20T14:05:25;30.10;61.00
55777;DHT22;54079;44.540;18.784;2023-07-20T14:07:51;30.30;60.70
55777;DHT22;54079;44.540;18.784;2023-07-20T14:10:17;30.20;60.40
55777;DHT22;54079;44.540;18.784;2023-07-20T14:12:44;30.20;61.30
55777;DHT22;54079;44.540;18.784;2023-07-20T14:15:10;30.30;62.30
55777;DHT22;54079;44.540;18.784;2023-07-20T14:17:37;30.20;61.20
55777;DHT22;54079;44.540;18.784;2023-07-20T14:20:04;30.30;61.40
55777;DHT22;54079;44.540;18.784;2023-07-20T14:22:32;30.40;59.70
55777;DHT22;54079;44.540;18.784;2023-07-20T14:24:58;30.30;61.70
55777;DHT22;54079;44.540;18.784;2023-07-20T14:27:24;30.30;61.30
55777;DHT22;54079;44.540;18.784;2023-07-20T14:29:50;30.10;61.30
55777;DHT22;54079;44.540;18.784;2023-07-20T14:32:16;30.10;56.90
55777;DHT22;54079;44.540;18.784;2023-07-20T14:34:42;30.10;58.70
55777;DHT22;54079;44.540;18.784;2023-07-20T14:37:09;30.20;59.10
55777;DHT22;54079;44.540;18.784;2023-07-20T14:39:36;30.20;56.50
55777;DHT22;54079;44.540;18.784;2023-07-20T14:42:02;30.10;56.70
55777;DHT22;54079;44.540;18.784;2023-07-20T14:44:29;30.10;58.10
55777;DHT22;54079;44.540;18.784;2023-07-20T14:47:02;30.00;59.20
55777;DHT22;54079;44.540;18.784;2023-07-20T14:49:30;30.00;59.00
55777;DHT22;54079;44.540;18.784;2023-07-20T14:51:56;30.10;61.20
55777;DHT22;54079;44.540;18.784;2023-07-20T14:54:22;30.10;57.80
55777;DHT22;54079;44.540;18.784;2023-07-20T14:56:51;30.30;59.50
55777;DHT22;54079;44.540;18.784;2023-07-20T14:59:23;30.40;59.70
55777;DHT22;54079;44.540;18.784;2023-07-20T15:01:51;30.50;60.70
55777;DHT22;54079;44.540;18.784;2023-07-20T15:04:18;30.40;59.40
55777;DHT22;54079;44.540;18.784;2023-07-20T15:06:46;30.50;62.00
55777;DHT22;54079;44.540;18.784;2023-07-20T15:09:14;30.30;59.30
55777;DHT22;54079;44.540;18.784;2023-07-20T15:11:40;30.10;64.20
55777;DHT22;54079;44.540;18.784;2023-07-20T15:14:07;29.90;60.20
55777;DHT22;54079;44.540;18.784;2023-07-20T15:16:33;29.90;60.70
55777;DHT22;54079;44.540;18.784;2023-07-20T15:19:03;30.10;60.80
55777;DHT22;54079;44.540;18.784;2023-07-20T15:21:31;30.20;62.60
55777;DHT22;54079;44.540;18.784;2023-07-20T15:23:58;30.30;63.10
55777;DHT22;54079;44.540;18.784;2023-07-20T15:26:25;30.50;61.70
55777;DHT22;54079;44.540;18.784;2023-07-20T15:28:52;30.60;62.60
55777;DHT22;54079;44.540;18.784;2023-07-20T15:31:18;30.60;60.70
55777;DHT22;54079;44.540;18.784;2023-07-20T15:33:44;30.60;63.20
55777;DHT22;54079;44.540;18.784;2023-07-20T15:36:10;30.20;60.70